createdAt,value
2019-01-12T00:02:10.255Z,90.40
2019-01-12T00:04:38.482Z,90.50
2019-01-12T00:07:20.995Z,90.30
2019-01-12T00:10:08.799Z,90.20
2019-01-12T00:12:49.995Z,91.20
2019-01-12T00:15:38.318Z,91.40
2019-01-12T00:18:18.956Z,91.40
2019-01-12T00:21:06.457Z,91.60
2019-01-12T00:23:47.450Z,91.90
2019-01-12T00:26:34.978Z,91.90
2019-01-12T00:29:16.017Z,91.90
2019-01-12T00:32:03.677Z,91.70
2019-01-12T00:34:32.768Z,91.80
2019-01-12T00:37:00.898Z,92.00
2019-01-12T00:39:42.017Z,91.70
2019-01-12T00:42:10.034Z,91.70
2019-01-12T00:44:52.072Z,91.50
2019-01-12T00:47:20.106Z,91.60
2019-01-12T00:50:06.150Z,91.40
2019-01-12T00:52:34.155Z,91.50
2019-01-12T00:55:14.375Z,91.40
2019-01-12T00:58:01.872Z,91.80
2019-01-12T01:00:42.253Z,91.70
2019-01-12T01:03:22.415Z,91.90
2019-01-12T01:05:50.482Z,91.90
2019-01-12T01:08:32.850Z,92.00
2019-01-12T01:11:00.817Z,91.90
2019-01-12T01:13:41.256Z,91.60
2019-01-12T01:16:09.316Z,91.60
2019-01-12T01:18:49.755Z,91.40
2019-01-12T01:21:17.791Z,91.40
2019-01-12T01:23:46.023Z,91.70
2019-01-12T01:26:33.754Z,91.60
2019-01-12T01:29:14.335Z,91.70
2019-01-12T01:31:42.529Z,91.30
2019-01-12T01:34:24.514Z,91.60
2019-01-12T01:36:52.508Z,91.70
2019-01-12T01:39:20.450Z,91.70
2019-01-12T01:42:01.208Z,91.60
2019-01-12T01:44:48.655Z,91.50
2019-01-12T01:47:29.401Z,91.60
2019-01-12T01:50:17.288Z,91.60
2019-01-12T01:52:58.006Z,91.40
2019-01-12T01:55:45.681Z,91.30
2019-01-12T01:58:13.663Z,91.60
2019-01-12T02:00:41.778Z,91.20
2019-01-12T02:03:09.754Z,91.30
2019-01-12T02:05:57.378Z,91.40
2019-01-12T02:08:38.046Z,91.70
2019-01-12T02:11:25.524Z,91.90
2019-01-12T02:14:06.104Z,91.70
2019-01-12T02:16:53.767Z,92.20
2019-01-12T02:19:34.198Z,92.10
2019-01-12T02:22:21.872Z,91.80
2019-01-12T02:25:02.489Z,91.80
2019-01-12T02:27:30.433Z,91.80
2019-01-12T02:29:58.359Z,91.90
2019-01-12T02:32:46.096Z,91.70
2019-01-12T02:35:14.139Z,91.60
2019-01-12T02:37:42.086Z,92.60
2019-01-12T02:40:11.023Z,92.40
2019-01-12T02:42:39.226Z,92.40
2019-01-12T02:45:07.859Z,92.20
2019-01-12T02:47:35.914Z,92.20
2019-01-12T02:50:17.696Z,92.00
2019-01-12T02:52:57.816Z,92.20
2019-01-12T02:55:45.246Z,91.70
2019-01-12T02:58:13.265Z,91.70
2019-01-12T03:00:41.362Z,91.70
2019-01-12T03:03:22.065Z,91.70
2019-01-12T03:06:09.483Z,91.70
2019-01-12T03:08:39.592Z,91.50
2019-01-12T03:11:07.578Z,91.40
2019-01-12T03:13:35.456Z,91.50
2019-01-12T03:16:03.996Z,91.50
2019-01-12T03:18:31.894Z,91.50
2019-01-12T03:21:19.483Z,91.40
2019-01-12T03:24:00.197Z,91.50
2019-01-12T03:26:28.065Z,91.30
2019-01-12T03:28:55.953Z,91.50
2019-01-12T03:31:23.860Z,91.40
2019-01-12T03:33:52.885Z,91.80
2019-01-12T03:36:20.875Z,92.20
2019-01-12T03:41:29.062Z,92.70
2019-01-12T03:44:16.649Z,92.60
2019-01-12T03:46:57.437Z,92.60
2019-01-12T03:49:25.299Z,92.60
2019-01-12T03:51:53.296Z,92.60
2019-01-12T03:54:40.712Z,92.40
2019-01-12T03:57:21.152Z,92.30
2019-01-12T04:00:15.289Z,92.60
2019-01-12T04:02:56.360Z,92.50
2019-01-12T04:05:43.891Z,92.40
2019-01-12T04:08:24.473Z,92.20
2019-01-12T04:11:12.018Z,92.10
2019-01-12T04:13:52.571Z,92.30
2019-01-12T04:16:39.977Z,92.70
2019-01-12T04:19:20.710Z,92.40
2019-01-12T04:22:08.220Z,92.50
2019-01-12T04:24:48.698Z,92.90
2019-01-12T04:27:16.630Z,92.80
2019-01-12T04:29:44.548Z,93.00
2019-01-12T04:32:12.492Z,93.10
2019-01-12T04:34:54.470Z,93.30
2019-01-12T04:37:45.337Z,93.50
2019-01-12T04:40:25.856Z,93.30
2019-01-12T04:43:05.848Z,93.50
2019-01-12T04:45:33.843Z,93.40
2019-01-12T04:48:21.293Z,93.70
2019-01-12T04:50:49.891Z,93.40
2019-01-12T04:53:17.863Z,92.90
2019-01-12T04:56:00.466Z,92.50
2019-01-12T04:58:28.375Z,92.30
2019-01-12T05:00:56.448Z,92.40
2019-01-12T05:03:24.493Z,92.20
2019-01-12T05:05:52.546Z,92.30
2019-01-12T05:08:20.625Z,92.50
2019-01-12T05:10:49.547Z,92.60
2019-01-12T05:13:17.488Z,92.50
2019-01-12T05:16:00.393Z,92.50
2019-01-12T05:18:28.343Z,92.60
2019-01-12T05:21:15.985Z,92.40
2019-01-12T05:23:56.627Z,92.30
2019-01-12T05:26:44.049Z,92.50
2019-01-12T05:29:24.531Z,92.40
2019-01-12T05:32:11.995Z,92.30
2019-01-12T05:34:53.205Z,92.40
2019-01-12T05:37:40.691Z,92.30
2019-01-12T05:40:08.958Z,92.60
2019-01-12T05:42:36.874Z,92.90
2019-01-12T05:45:05.415Z,93.00
2019-01-12T05:47:53.756Z,93.10
2019-01-12T05:50:21.975Z,93.20
2019-01-12T05:53:09.412Z,93.20
2019-01-12T05:55:57.019Z,93.20
2019-01-12T05:58:39.939Z,93.00
2019-01-12T06:01:21.051Z,92.70
2019-01-12T06:04:08.414Z,93.00
2019-01-12T06:06:36.337Z,93.30
2019-01-12T06:09:24.001Z,93.40
2019-01-12T06:12:04.900Z,93.20
2019-01-12T06:14:52.329Z,93.30
2019-01-12T06:17:34.755Z,93.70
2019-01-12T06:20:22.180Z,93.40
2019-01-12T06:23:02.662Z,93.40
2019-01-12T06:25:30.614Z,93.50
2019-01-12T06:27:58.669Z,93.30
2019-01-12T06:30:26.621Z,93.20
2019-01-12T06:33:06.781Z,93.20
2019-01-12T06:35:54.623Z,92.90
2019-01-12T06:38:35.599Z,93.20
2019-01-12T06:41:03.476Z,92.90
2019-01-12T06:43:43.775Z,93.00
2019-01-12T06:51:52.171Z,92.50
2019-01-12T06:54:39.619Z,92.90
2019-01-12T06:57:20.601Z,93.10
2019-01-12T07:00:11.285Z,92.80
2019-01-12T07:02:52.063Z,93.70
2019-01-12T07:05:20.103Z,94.50
2019-01-12T07:08:01.164Z,94.70
2019-01-12T07:10:29.986Z,95.10
2019-01-12T07:13:10.259Z,95.00
2019-01-12T07:15:50.357Z,95.10
2019-01-12T07:18:18.352Z,94.90
2019-01-12T07:20:46.250Z,95.20
2019-01-12T07:23:26.551Z,95.20
2019-01-12T07:26:17.624Z,95.20
2019-01-12T07:28:50.186Z,95.30
2019-01-12T07:31:37.551Z,95.30
2019-01-12T07:34:18.536Z,95.40
2019-01-12T07:37:06.020Z,95.40
2019-01-12T07:39:33.982Z,95.50
2019-01-12T07:42:22.158Z,95.50
2019-01-12T07:44:50.120Z,95.30
2019-01-12T07:47:18.063Z,95.30
2019-01-12T07:49:46.086Z,95.20
2019-01-12T07:52:14.103Z,95.10
2019-01-12T07:54:42.070Z,94.90
2019-01-12T07:57:10.152Z,94.60
2019-01-12T07:59:38.357Z,94.40
2019-01-12T08:02:27.796Z,94.30
2019-01-12T08:05:10.341Z,94.00
2019-01-12T08:07:57.777Z,93.80
2019-01-12T08:10:42.191Z,93.70
2019-01-12T08:13:29.793Z,93.50
2019-01-12T08:15:57.730Z,92.90
2019-01-12T08:18:47.091Z,93.10
2019-01-12T08:21:27.891Z,93.00
2019-01-12T08:24:15.327Z,93.10
2019-01-12T08:26:55.735Z,93.10
2019-01-12T08:29:43.288Z,93.00
2019-01-12T08:32:11.285Z,93.10
2019-01-12T08:34:39.325Z,93.40
2019-01-12T08:37:07.427Z,93.40
2019-01-12T08:39:47.956Z,93.20
2019-01-12T08:42:35.524Z,92.90
2019-01-12T08:45:15.945Z,92.90
2019-01-12T08:47:56.955Z,93.20
2019-01-12T08:50:44.394Z,92.80
2019-01-12T08:53:25.427Z,92.70
2019-01-12T08:56:13.192Z,92.60
2019-01-12T08:58:54.890Z,92.30
2019-01-12T09:01:42.397Z,92.50
2019-01-12T09:04:23.259Z,92.40
2019-01-12T09:06:52.273Z,92.60
2019-01-12T09:09:33.108Z,92.60
2019-01-12T09:12:01.110Z,92.50
2019-01-12T09:14:42.300Z,92.20
2019-01-12T09:17:10.323Z,92.40
2019-01-12T09:19:38.603Z,92.40
2019-01-12T09:22:07.969Z,92.40
2019-01-12T09:24:36.633Z,92.40
2019-01-12T09:27:04.753Z,92.50
2019-01-12T09:29:47.166Z,92.20
2019-01-12T09:32:20.729Z,91.80
2019-01-12T09:35:01.086Z,91.40
2019-01-12T09:37:29.332Z,91.80
2019-01-12T09:40:10.722Z,91.10
2019-01-12T09:42:58.679Z,90.90
2019-01-12T09:45:39.856Z,90.50
2019-01-12T09:48:27.682Z,89.60
2019-01-12T09:50:55.661Z,89.40
2019-01-12T09:53:24.844Z,88.90
2019-01-12T09:56:12.281Z,88.70
2019-01-12T09:59:05.137Z,89.50
2019-01-12T10:01:33.466Z,89.90
2019-01-12T10:04:17.481Z,88.70
2019-01-12T10:06:45.832Z,89.10
2019-01-12T10:09:14.297Z,88.80
2019-01-12T10:11:43.199Z,87.90
2019-01-12T10:14:12.469Z,88.10
2019-01-12T10:16:41.083Z,88.30
2019-01-12T10:19:09.425Z,86.40
2019-01-12T10:21:37.464Z,87.00
2019-01-12T10:24:05.537Z,86.30
2019-01-12T10:26:33.513Z,84.40
2019-01-12T10:29:15.898Z,84.90
2019-01-12T10:32:03.760Z,84.40
2019-01-12T10:34:45.608Z,83.40
2019-01-12T10:37:33.326Z,83.60
2019-01-12T10:40:03.247Z,84.30
2019-01-12T10:42:31.744Z,84.40
2019-01-12T10:44:59.792Z,83.60
2019-01-12T10:47:47.838Z,83.30
2019-01-12T10:50:24.599Z,84.30
2019-01-12T10:53:12.667Z,84.50
2019-01-12T10:55:53.192Z,84.70
2019-01-12T10:58:41.385Z,85.50
2019-01-12T11:01:22.157Z,86.10
2019-01-12T11:04:03.838Z,85.50
2019-01-12T11:06:32.139Z,84.80
2019-01-12T11:09:15.375Z,85.40
2019-01-12T11:12:03.807Z,86.10
2019-01-12T11:14:44.561Z,86.70
2019-01-12T11:17:32.203Z,87.30
2019-01-12T11:20:13.438Z,86.60
2019-01-12T11:23:00.843Z,85.80
2019-01-12T11:25:43.717Z,85.50
2019-01-12T11:28:31.200Z,84.70
2019-01-12T11:31:12.431Z,83.80
2019-01-12T11:34:00.359Z,80.10
2019-01-12T11:36:28.342Z,81.00
2019-01-12T11:38:56.527Z,81.40
2019-01-12T11:41:24.587Z,80.40
2019-01-12T11:43:52.593Z,80.10
2019-01-12T11:46:22.846Z,79.90
2019-01-12T11:49:05.242Z,81.30
2019-01-12T11:51:45.560Z,80.90
2019-01-12T11:54:13.536Z,81.70
2019-01-12T11:56:41.698Z,81.80
2019-01-12T11:59:09.686Z,81.50
2019-01-12T12:01:37.772Z,81.40
2019-01-12T12:04:06.039Z,81.20
2019-01-12T12:06:35.227Z,82.60
2019-01-12T12:09:23.610Z,82.80
2019-01-12T12:12:03.819Z,82.70
2019-01-12T12:14:31.746Z,83.20
2019-01-12T12:16:59.915Z,83.90
2019-01-12T12:19:27.953Z,84.00
2019-01-12T12:21:55.947Z,84.10
2019-01-12T12:24:23.934Z,84.10
2019-01-12T12:26:52.317Z,84.30
2019-01-12T12:29:39.947Z,84.20
2019-01-12T12:32:20.355Z,83.80
2019-01-12T12:35:08.185Z,84.10
2019-01-12T12:37:36.212Z,84.40
2019-01-12T12:40:05.820Z,84.60
2019-01-12T12:42:45.958Z,83.20
2019-01-12T12:45:20.791Z,81.60
2019-01-12T12:47:49.684Z,80.00
2019-01-12T12:50:17.755Z,80.70
2019-01-12T12:52:45.850Z,80.60
2019-01-12T12:55:35.186Z,80.80
2019-01-12T12:58:24.857Z,81.30
2019-01-12T13:01:12.793Z,80.90
2019-01-12T13:03:53.916Z,80.20
2019-01-12T13:06:42.700Z,82.20
2019-01-12T13:09:10.822Z,81.80
2019-01-12T13:11:38.910Z,81.70
2019-01-12T13:14:07.044Z,82.20
2019-01-12T13:16:35.144Z,81.80
2019-01-12T13:19:19.478Z,82.00
2019-01-12T13:21:47.733Z,83.30
2019-01-12T13:24:28.715Z,83.10
2019-01-12T13:27:16.269Z,83.70
2019-01-12T13:29:57.161Z,83.60
2019-01-12T13:32:38.085Z,84.10
2019-01-12T13:35:07.007Z,84.30
2019-01-12T13:37:36.987Z,84.30
2019-01-12T13:40:26.190Z,84.00
2019-01-12T13:42:54.555Z,83.80
2019-01-12T13:45:42.190Z,81.60
2019-01-12T13:48:23.165Z,80.10
2019-01-12T13:51:10.883Z,80.30
2019-01-12T13:53:39.636Z,80.10
2019-01-12T13:56:07.833Z,79.10
2019-01-12T13:58:48.440Z,79.30
2019-01-12T14:01:16.630Z,79.40
2019-01-12T14:03:44.826Z,79.60
2019-01-12T14:06:34.894Z,80.50
2019-01-12T14:09:16.215Z,80.60
2019-01-12T14:11:44.527Z,82.40
2019-01-12T14:14:12.688Z,83.30
2019-01-12T14:16:41.058Z,84.70
2019-01-12T14:19:23.557Z,86.70
2019-01-12T14:21:51.773Z,87.10
2019-01-12T14:24:21.727Z,88.30
2019-01-12T14:26:50.769Z,89.30
2019-01-12T14:29:18.960Z,90.20
2019-01-12T14:31:47.778Z,90.00
2019-01-12T14:34:28.853Z,90.20
2019-01-12T14:37:11.016Z,90.50
2019-01-12T14:39:59.788Z,90.10
2019-01-12T14:42:41.443Z,90.40
2019-01-12T14:45:32.882Z,90.80
2019-01-12T14:48:01.356Z,91.00
2019-01-12T14:50:49.743Z,91.40
2019-01-12T14:53:30.757Z,91.70
2019-01-12T14:56:18.495Z,92.00
2019-01-12T14:58:59.842Z,92.30
2019-01-12T15:01:30.598Z,92.60
2019-01-12T15:03:58.823Z,92.70
2019-01-12T15:06:27.140Z,92.90
2019-01-12T15:08:55.367Z,92.80
2019-01-12T15:11:23.472Z,92.90
2019-01-12T15:13:51.682Z,92.90
2019-01-12T15:16:20.345Z,93.10
2019-01-12T15:19:01.612Z,92.80
2019-01-12T15:21:29.757Z,93.20
2019-01-12T15:23:58.306Z,93.10
2019-01-12T15:26:26.306Z,93.20
2019-01-12T15:28:54.589Z,93.20
2019-01-12T15:31:36.101Z,93.10
2019-01-12T15:34:16.857Z,93.30
2019-01-12T15:36:44.925Z,93.50
2019-01-12T15:39:13.000Z,93.40
2019-01-12T15:41:41.215Z,93.40
2019-01-12T15:44:21.547Z,94.00
2019-01-12T15:47:09.103Z,94.30
2019-01-12T15:49:37.051Z,93.90
2019-01-12T15:52:18.119Z,93.60
2019-01-12T15:54:59.317Z,93.30
2019-01-12T15:57:40.306Z,92.80
2019-01-12T16:00:29.380Z,92.10
2019-01-12T16:02:57.711Z,92.20
2019-01-12T16:05:27.157Z,91.70
2019-01-12T16:07:56.151Z,91.20
2019-01-12T16:10:43.953Z,91.10
2019-01-12T16:13:25.025Z,90.90
2019-01-12T16:16:12.571Z,91.20
2019-01-12T16:18:53.033Z,91.20
2019-01-12T16:21:40.532Z,91.10
2019-01-12T16:24:21.388Z,91.20
2019-01-12T16:26:49.494Z,91.30
2019-01-12T16:29:17.658Z,91.40
2019-01-12T16:31:45.870Z,91.40
2019-01-12T16:34:14.116Z,91.70
2019-01-12T16:39:42.349Z,91.70
2019-01-12T16:42:30.074Z,91.70
2019-01-12T16:44:58.172Z,91.70
2019-01-12T16:47:26.181Z,91.20
2019-01-12T16:50:08.266Z,91.80
2019-01-12T16:52:55.754Z,92.20
2019-01-12T16:55:36.638Z,92.50
2019-01-12T16:58:17.010Z,92.80
2019-01-12T17:00:45.060Z,92.90
2019-01-12T17:03:26.031Z,93.00
2019-01-12T17:05:54.352Z,93.00
2019-01-12T17:08:22.405Z,93.20
2019-01-12T17:10:50.584Z,93.30
2019-01-12T17:13:18.840Z,93.40
2019-01-12T17:15:46.960Z,93.60
2019-01-12T17:18:15.513Z,93.70
2019-01-12T17:21:03.016Z,93.70
2019-01-12T17:23:43.525Z,93.40
2019-01-12T17:26:31.386Z,93.20
2019-01-12T17:29:17.684Z,93.20
2019-01-12T17:31:42.054Z,93.20
2019-01-12T17:34:24.900Z,93.30
2019-01-12T17:37:12.735Z,93.60
2019-01-12T17:39:40.849Z,93.40
2019-01-12T17:42:09.356Z,92.90
2019-01-12T17:44:37.451Z,93.10
2019-01-12T17:47:05.625Z,92.90
2019-01-12T17:49:33.813Z,92.90
2019-01-12T17:52:01.965Z,93.10
2019-01-12T17:54:30.268Z,93.00
2019-01-12T17:56:58.681Z,93.10
2019-01-12T17:59:40.829Z,93.10
2019-01-12T18:02:09.334Z,93.00
2019-01-12T18:04:37.488Z,92.80
2019-01-12T18:07:05.798Z,92.60
2019-01-12T18:09:34.052Z,92.70
2019-01-12T18:12:02.232Z,92.60
2019-01-12T18:14:30.315Z,92.40
2019-01-12T18:17:18.336Z,92.20
2019-01-12T18:19:46.313Z,92.40
2019-01-12T18:22:14.388Z,92.50
2019-01-12T18:24:42.849Z,92.60
2019-01-12T18:27:11.135Z,92.60
2019-01-12T18:29:51.771Z,92.60
2019-01-12T18:32:32.548Z,92.50
2019-01-12T18:35:13.466Z,92.40
2019-01-12T18:37:41.646Z,92.60
2019-01-12T18:40:25.555Z,92.50
2019-01-12T18:42:54.596Z,92.50
2019-01-12T18:45:22.785Z,92.60
2019-01-12T18:48:10.485Z,92.30
2019-01-12T18:50:50.949Z,92.00
2019-01-12T18:53:38.499Z,92.20
2019-01-12T18:56:19.694Z,92.00
2019-01-12T19:02:17.172Z,92.20
2019-01-12T19:04:45.288Z,92.90
2019-01-12T19:07:33.228Z,93.00
2019-01-12T19:10:13.730Z,92.70
2019-01-12T19:13:01.497Z,92.10
2019-01-12T19:15:41.974Z,91.80
2019-01-12T19:18:10.214Z,91.80
2019-01-12T19:20:55.099Z,92.10
2019-01-12T19:23:42.717Z,92.40
2019-01-12T19:26:23.993Z,92.40
2019-01-12T19:29:11.469Z,92.40
2019-01-12T19:31:52.269Z,92.40
2019-01-12T19:34:39.812Z,92.40
2019-01-12T19:37:20.891Z,92.20
2019-01-12T19:40:13.633Z,92.10
2019-01-12T19:42:55.323Z,91.80
2019-01-12T19:45:23.602Z,91.80
2019-01-12T19:47:52.375Z,91.90
2019-01-12T19:50:40.735Z,91.70
2019-01-12T19:53:28.451Z,91.50
2019-01-12T19:56:09.440Z,91.60
2019-01-12T19:58:57.109Z,91.80
2019-01-12T20:01:37.819Z,91.70
2019-01-12T20:04:18.355Z,91.80
2019-01-12T20:06:46.488Z,92.00
2019-01-12T20:09:14.684Z,92.10
2019-01-12T20:11:42.854Z,91.90
2019-01-12T20:14:11.011Z,91.80
2019-01-12T20:16:39.301Z,92.00
2019-01-12T20:19:07.528Z,91.70
2019-01-12T20:21:36.831Z,91.90
2019-01-12T20:24:05.431Z,92.00
2019-01-12T20:26:33.709Z,92.00
2019-01-12T20:29:02.001Z,92.00
2019-01-12T20:32:09.400Z,92.40
2019-01-12T20:35:12.596Z,92.40
2019-01-12T20:38:57.025Z,92.70
2019-01-12T20:42:01.893Z,92.70
2019-01-12T20:48:13.118Z,92.70
2019-01-12T20:51:04.998Z,92.50
2019-01-12T20:54:34.958Z,92.30
2019-01-12T20:57:48.494Z,92.40
2019-01-12T21:00:56.424Z,92.40
2019-01-12T21:03:56.206Z,92.30
2019-01-12T21:07:16.915Z,92.30
2019-01-12T21:10:07.129Z,92.70
2019-01-12T21:13:33.808Z,92.70
2019-01-12T21:16:16.681Z,92.40
2019-01-12T21:18:44.828Z,92.50
2019-01-12T21:21:13.007Z,92.70
2019-01-12T21:23:41.494Z,92.70
2019-01-12T21:26:09.608Z,92.90
2019-01-12T21:28:57.428Z,92.90
2019-01-12T21:31:45.036Z,92.80
2019-01-12T21:34:25.703Z,92.80
2019-01-12T21:37:13.325Z,92.80
2019-01-12T21:39:53.983Z,92.60
2019-01-12T21:42:41.615Z,92.70
2019-01-12T21:45:12.358Z,92.60
2019-01-12T21:48:00.133Z,92.60
2019-01-12T21:50:28.250Z,92.60
2019-01-12T21:52:56.364Z,92.50
2019-01-12T21:55:36.863Z,92.50
2019-01-12T21:58:24.646Z,92.30
2019-01-12T22:00:52.929Z,92.30
2019-01-12T22:03:21.206Z,92.40
2019-01-12T22:05:49.529Z,92.20
2019-01-12T22:08:17.772Z,92.50
2019-01-12T22:10:46.017Z,92.60
2019-01-12T22:13:14.209Z,92.60
2019-01-12T22:15:42.296Z,92.50
2019-01-12T22:18:26.760Z,92.40
2019-01-12T22:21:14.457Z,92.50
2019-01-12T22:23:56.279Z,92.30
2019-01-12T22:26:36.398Z,92.50
2019-01-12T22:29:17.500Z,92.70
2019-01-12T22:32:05.124Z,92.50
2019-01-12T22:34:45.589Z,92.10
2019-01-12T22:37:27.248Z,91.70
2019-01-12T22:39:55.575Z,91.30
2019-01-12T22:42:23.653Z,90.40
2019-01-12T22:44:51.818Z,89.80
2019-01-12T22:47:21.817Z,89.90
2019-01-12T22:49:49.880Z,89.70
2019-01-12T22:52:18.009Z,89.70
2019-01-12T22:54:46.406Z,89.20
2019-01-12T22:57:14.436Z,89.60
2019-01-12T22:59:42.982Z,89.60
2019-01-12T23:02:11.067Z,88.10
2019-01-12T23:04:53.495Z,88.00
2019-01-12T23:07:41.522Z,87.10
2019-01-12T23:10:22.784Z,86.80
2019-01-12T23:13:03.814Z,86.60
2019-01-12T23:15:51.437Z,86.90
2019-01-12T23:18:32.020Z,86.60
2019-01-12T23:21:19.702Z,86.40
2019-01-12T23:29:22.401Z,84.60
2019-01-12T23:32:03.300Z,85.70
2019-01-12T23:34:51.075Z,86.70
2019-01-12T23:37:19.081Z,86.80
2019-01-12T23:40:06.779Z,87.00
2019-01-12T23:42:47.689Z,86.70
2019-01-12T23:45:27.984Z,85.70
2019-01-12T23:48:08.159Z,86.60
2019-01-12T23:50:56.154Z,86.80
2019-01-12T23:53:36.630Z,87.30
2019-01-12T23:56:24.109Z,87.50
2019-01-12T23:59:04.925Z,86.70
